sensor_id;sensor_type;location;lat;lon;timestamp;pressure;altitude;pressure_sealevel;temperature;humidity
37610;BME280;23457;51.966;8.230;2023-03-04T00:02:20;101731.97;;;5.72;88.79
37610;BME280;23457;51.966;8.230;2023-03-04T00:04:47;101733.75;;;5.57;89.01
37610;BME280;23457;51.966;8.230;2023-03-04T00:07:14;101734.97;;;5.64;89.39
37610;BME280;23457;51.966;8.230;2023-03-04T00:09:43;101737.78;;;5.68;88.59
37610;BME280;23457;51.966;8.230;2023-03-04T00:12:11;101737.22;;;5.58;89.03
37610;BME280;23457;51.966;8.230;2023-03-04T00:14:38;101738.50;;;5.33;90.91
37610;BME280;23457;51.966;8.230;2023-03-04T00:17:05;101739.44;;;5.84;88.43
37610;BME280;23457;51.966;8.230;2023-03-04T00:19:33;101746.09;;;5.79;88.14
37610;BME280;23457;51.966;8.230;2023-03-04T00:22:01;101736.41;;;5.59;89.45
37610;BME280;23457;51.966;8.230;2023-03-04T00:24:30;101736.34;;;5.41;90.52
37610;BME280;23457;51.966;8.230;2023-03-04T00:26:57;101738.69;;;5.36;91.19
37610;BME280;23457;51.966;8.230;2023-03-04T00:29:25;101742.22;;;5.55;90.16
37610;BME280;23457;51.966;8.230;2023-03-04T00:31:52;101742.19;;;5.71;89.67
37610;BME280;23457;51.966;8.230;2023-03-04T00:34:19;101738.06;;;5.57;90.21
37610;BME280;23457;51.966;8.230;2023-03-04T00:36:46;101738.34;;;5.63;90.35
37610;BME280;23457;51.966;8.230;2023-03-04T00:39:13;101731.59;;;5.49;90.99
37610;BME280;23457;51.966;8.230;2023-03-04T00:41:40;101724.91;;;5.52;90.62
37610;BME280;23457;51.966;8.230;2023-03-04T00:44:07;101727.34;;;5.83;89.28
37610;BME280;23457;51.966;8.230;2023-03-04T00:46:34;101724.72;;;5.82;88.57
37610;BME280;23457;51.966;8.230;2023-03-04T00:49:00;101728.91;;;5.96;88.59
37610;BME280;23457;51.966;8.230;2023-03-04T00:51:27;101726.53;;;5.84;89.66
37610;BME280;23457;51.966;8.230;2023-03-04T00:53:54;101724.41;;;5.92;88.92
37610;BME280;23457;51.966;8.230;2023-03-04T00:56:21;101722.78;;;5.78;89.10
37610;BME280;23457;51.966;8.230;2023-03-04T00:58:48;101727.22;;;5.64;90.61
37610;BME280;23457;51.966;8.230;2023-03-04T01:01:15;101729.38;;;5.72;90.27
37610;BME280;23457;51.966;8.230;2023-03-04T01:03:41;101721.91;;;5.77;90.17
37610;BME280;23457;51.966;8.230;2023-03-04T01:06:09;101720.63;;;5.53;90.69
37610;BME280;23457;51.966;8.230;2023-03-04T01:08:37;101728.28;;;5.51;90.85
37610;BME280;23457;51.966;8.230;2023-03-04T01:11:05;101729.38;;;5.72;90.05
37610;BME280;23457;51.966;8.230;2023-03-04T01:13:32;101728.50;;;5.72;89.82
37610;BME280;23457;51.966;8.230;2023-03-04T01:15:59;101716.06;;;5.97;88.58
37610;BME280;23457;51.966;8.230;2023-03-04T01:18:26;101726.97;;;5.59;90.47
37610;BME280;23457;51.966;8.230;2023-03-04T01:20:52;101716.91;;;5.48;90.50
37610;BME280;23457;51.966;8.230;2023-03-04T01:23:19;101713.69;;;5.52;90.88
37610;BME280;23457;51.966;8.230;2023-03-04T01:25:46;101714.84;;;5.40;91.64
37610;BME280;23457;51.966;8.230;2023-03-04T01:28:13;101708.38;;;5.49;91.01
37610;BME280;23457;51.966;8.230;2023-03-04T01:30:40;101715.00;;;5.44;90.92
37610;BME280;23457;51.966;8.230;2023-03-04T01:33:07;101712.47;;;5.61;90.87
37610;BME280;23457;51.966;8.230;2023-03-04T01:35:34;101705.63;;;5.94;89.17
37610;BME280;23457;51.966;8.230;2023-03-04T01:38:01;101699.66;;;5.79;89.83
37610;BME280;23457;51.966;8.230;2023-03-04T01:40:30;101698.69;;;5.61;91.24
37610;BME280;23457;51.966;8.230;2023-03-04T01:42:57;101699.28;;;5.55;91.42
37610;BME280;23457;51.966;8.230;2023-03-04T01:45:24;101693.09;;;5.86;89.79
37610;BME280;23457;51.966;8.230;2023-03-04T01:47:51;101684.69;;;5.56;91.31
37610;BME280;23457;51.966;8.230;2023-03-04T01:50:32;101691.69;;;5.58;92.28
37610;BME280;23457;51.966;8.230;2023-03-04T01:53:01;101682.34;;;5.60;91.33
37610;BME280;23457;51.966;8.230;2023-03-04T01:55:29;101687.19;;;5.54;91.81
37610;BME280;23457;51.966;8.230;2023-03-04T01:57:56;101681.63;;;5.47;92.18
37610;BME280;23457;51.966;8.230;2023-03-04T02:00:31;101676.63;;;5.50;92.69
37610;BME280;23457;51.966;8.230;2023-03-04T02:03:02;101673.72;;;5.60;93.09
37610;BME280;23457;51.966;8.230;2023-03-04T02:05:30;101670.47;;;5.30;92.98
37610;BME280;23457;51.966;8.230;2023-03-04T02:07:58;101669.69;;;5.49;93.18
37610;BME280;23457;51.966;8.230;2023-03-04T02:10:26;101664.91;;;5.89;90.50
37610;BME280;23457;51.966;8.230;2023-03-04T02:12:53;101664.69;;;5.68;90.68
37610;BME280;23457;51.966;8.230;2023-03-04T02:15:20;101661.59;;;5.25;94.63
37610;BME280;23457;51.966;8.230;2023-03-04T02:17:47;101665.38;;;5.31;93.80
37610;BME280;23457;51.966;8.230;2023-03-04T02:23:11;101661.41;;;5.22;94.85
37610;BME280;23457;51.966;8.230;2023-03-04T02:26:01;101658.03;;;5.39;93.77
37610;BME280;23457;51.966;8.230;2023-03-04T02:28:29;101661.53;;;5.57;92.49
37610;BME280;23457;51.966;8.230;2023-03-04T02:30:55;101657.88;;;5.52;93.18
37610;BME280;23457;51.966;8.230;2023-03-04T02:33:22;101652.53;;;5.83;91.55
37610;BME280;23457;51.966;8.230;2023-03-04T02:35:50;101652.78;;;5.54;93.02
37610;BME280;23457;51.966;8.230;2023-03-04T02:38:17;101652.16;;;5.75;92.70
37610;BME280;23457;51.966;8.230;2023-03-04T02:40:46;101654.22;;;5.49;93.46
37610;BME280;23457;51.966;8.230;2023-03-04T02:43:14;101651.50;;;4.97;95.50
37610;BME280;23457;51.966;8.230;2023-03-04T02:45:44;101653.06;;;5.26;95.13
37610;BME280;23457;51.966;8.230;2023-03-04T02:48:12;101652.06;;;5.40;94.69
37610;BME280;23457;51.966;8.230;2023-03-04T02:50:50;101650.56;;;5.27;95.34
37610;BME280;23457;51.966;8.230;2023-03-04T02:53:18;101642.88;;;5.45;94.56
37610;BME280;23457;51.966;8.230;2023-03-04T02:55:47;101643.00;;;5.64;93.27
37610;BME280;23457;51.966;8.230;2023-03-04T02:58:15;101632.91;;;5.35;94.42
37610;BME280;23457;51.966;8.230;2023-03-04T03:00:42;101632.53;;;5.61;93.36
37610;BME280;23457;51.966;8.230;2023-03-04T03:03:09;101634.75;;;5.37;94.42
37610;BME280;23457;51.966;8.230;2023-03-04T03:05:36;101630.88;;;5.46;94.65
37610;BME280;23457;51.966;8.230;2023-03-04T03:08:05;101645.84;;;5.69;93.32
37610;BME280;23457;51.966;8.230;2023-03-04T03:10:32;101637.56;;;5.76;92.83
37610;BME280;23457;51.966;8.230;2023-03-04T03:13:00;101625.31;;;5.72;92.17
37610;BME280;23457;51.966;8.230;2023-03-04T03:15:28;101632.63;;;5.47;94.49
37610;BME280;23457;51.966;8.230;2023-03-04T03:17:55;101632.88;;;5.51;94.30
37610;BME280;23457;51.966;8.230;2023-03-04T03:20:22;101638.13;;;5.20;95.56
37610;BME280;23457;51.966;8.230;2023-03-04T03:22:49;101628.50;;;5.16;96.00
37610;BME280;23457;51.966;8.230;2023-03-04T03:25:16;101626.81;;;5.00;95.99
37610;BME280;23457;51.966;8.230;2023-03-04T03:27:43;101622.13;;;5.60;93.59
37610;BME280;23457;51.966;8.230;2023-03-04T03:30:13;101622.13;;;5.60;93.55
37610;BME280;23457;51.966;8.230;2023-03-04T03:32:41;101621.25;;;5.25;94.58
37610;BME280;23457;51.966;8.230;2023-03-04T03:35:08;101619.00;;;5.31;94.52
37610;BME280;23457;51.966;8.230;2023-03-04T03:37:35;101618.16;;;5.32;94.42
37610;BME280;23457;51.966;8.230;2023-03-04T03:40:03;101627.16;;;5.07;95.08
37610;BME280;23457;51.966;8.230;2023-03-04T03:42:30;101619.22;;;5.20;94.59
37610;BME280;23457;51.966;8.230;2023-03-04T03:44:57;101614.56;;;5.63;92.61
37610;BME280;23457;51.966;8.230;2023-03-04T03:47:23;101619.19;;;5.52;91.92
37610;BME280;23457;51.966;8.230;2023-03-04T03:49:50;101620.69;;;5.31;93.86
37610;BME280;23457;51.966;8.230;2023-03-04T03:52:17;101616.16;;;5.11;94.33
37610;BME280;23457;51.966;8.230;2023-03-04T03:54:43;101611.69;;;5.57;92.90
37610;BME280;23457;51.966;8.230;2023-03-04T03:57:10;101616.41;;;5.31;93.47
37610;BME280;23457;51.966;8.230;2023-03-04T03:59:37;101609.13;;;5.57;92.25
37610;BME280;23457;51.966;8.230;2023-03-04T04:02:04;101611.25;;;5.65;91.04
37610;BME280;23457;51.966;8.230;2023-03-04T04:04:31;101610.94;;;5.25;91.74
37610;BME280;23457;51.966;8.230;2023-03-04T04:06:58;101616.47;;;5.33;92.79
37610;BME280;23457;51.966;8.230;2023-03-04T04:09:25;101620.81;;;5.34;92.47
37610;BME280;23457;51.966;8.230;2023-03-04T04:11:52;101614.25;;;5.07;93.66
37610;BME280;23457;51.966;8.230;2023-03-04T04:14:19;101607.03;;;5.50;92.48
37610;BME280;23457;51.966;8.230;2023-03-04T04:16:45;101613.84;;;5.15;93.84
37610;BME280;23457;51.966;8.230;2023-03-04T04:19:19;101615.91;;;5.22;94.19
37610;BME280;23457;51.966;8.230;2023-03-04T04:21:46;101603.84;;;5.21;94.18
37610;BME280;23457;51.966;8.230;2023-03-04T04:24:13;101594.03;;;5.48;93.54
37610;BME280;23457;51.966;8.230;2023-03-04T04:26:40;101600.19;;;5.34;94.49
37610;BME280;23457;51.966;8.230;2023-03-04T04:29:08;101595.47;;;5.59;92.30
37610;BME280;23457;51.966;8.230;2023-03-04T04:31:35;101593.41;;;5.70;90.92
37610;BME280;23457;51.966;8.230;2023-03-04T04:34:02;101597.75;;;5.53;92.26
37610;BME280;23457;51.966;8.230;2023-03-04T04:36:29;101594.09;;;5.66;91.77
37610;BME280;23457;51.966;8.230;2023-03-04T04:38:56;101596.72;;;5.50;92.75
37610;BME280;23457;51.966;8.230;2023-03-04T04:41:25;101596.47;;;5.79;92.11
37610;BME280;23457;51.966;8.230;2023-03-04T04:43:52;101591.66;;;5.69;92.58
37610;BME280;23457;51.966;8.230;2023-03-04T04:46:19;101584.09;;;5.38;93.75
37610;BME280;23457;51.966;8.230;2023-03-04T04:48:46;101595.72;;;5.30;95.05
37610;BME280;23457;51.966;8.230;2023-03-04T04:51:13;101586.72;;;5.56;94.70
37610;BME280;23457;51.966;8.230;2023-03-04T04:53:40;101593.56;;;5.55;93.97
37610;BME280;23457;51.966;8.230;2023-03-04T04:56:11;101589.81;;;5.66;93.54
37610;BME280;23457;51.966;8.230;2023-03-04T04:58:39;101589.22;;;5.54;94.16
37610;BME280;23457;51.966;8.230;2023-03-04T05:01:06;101591.28;;;5.61;94.39
37610;BME280;23457;51.966;8.230;2023-03-04T05:03:34;101592.88;;;5.42;94.56
37610;BME280;23457;51.966;8.230;2023-03-04T05:06:01;101591.56;;;5.33;95.94
37610;BME280;23457;51.966;8.230;2023-03-04T05:08:28;101596.22;;;5.57;94.83
37610;BME280;23457;51.966;8.230;2023-03-04T05:10:55;101596.28;;;5.24;97.12
37610;BME280;23457;51.966;8.230;2023-03-04T05:13:22;101593.13;;;5.30;96.18
37610;BME280;23457;51.966;8.230;2023-03-04T05:15:53;101590.91;;;5.54;95.51
37610;BME280;23457;51.966;8.230;2023-03-04T05:18:21;101584.53;;;5.47;95.47
37610;BME280;23457;51.966;8.230;2023-03-04T05:20:52;101590.75;;;5.51;95.47
37610;BME280;23457;51.966;8.230;2023-03-04T05:23:19;101593.13;;;5.30;96.41
37610;BME280;23457;51.966;8.230;2023-03-04T05:25:46;101592.72;;;5.38;96.06
37610;BME280;23457;51.966;8.230;2023-03-04T05:28:13;101594.38;;;5.72;95.71
37610;BME280;23457;51.966;8.230;2023-03-04T05:30:41;101587.50;;;5.89;94.30
37610;BME280;23457;51.966;8.230;2023-03-04T05:33:10;101591.16;;;5.76;93.73
37610;BME280;23457;51.966;8.230;2023-03-04T05:35:38;101587.44;;;5.71;93.92
37610;BME280;23457;51.966;8.230;2023-03-04T05:38:07;101597.25;;;5.94;93.35
37610;BME280;23457;51.966;8.230;2023-03-04T05:40:35;101596.75;;;5.67;94.72
37610;BME280;23457;51.966;8.230;2023-03-04T05:43:02;101597.41;;;4.97;98.99
37610;BME280;23457;51.966;8.230;2023-03-04T05:45:29;101592.38;;;5.32;97.22
37610;BME280;23457;51.966;8.230;2023-03-04T05:47:56;101604.00;;;5.24;98.20
37610;BME280;23457;51.966;8.230;2023-03-04T05:50:23;101608.06;;;5.03;99.60
37610;BME280;23457;51.966;8.230;2023-03-04T05:52:51;101614.63;;;4.98;100.00
37610;BME280;23457;51.966;8.230;2023-03-04T05:55:18;101603.75;;;5.20;100.00
37610;BME280;23457;51.966;8.230;2023-03-04T05:57:46;101608.69;;;4.99;100.00
37610;BME280;23457;51.966;8.230;2023-03-04T06:00:14;101608.84;;;4.86;100.00
37610;BME280;23457;51.966;8.230;2023-03-04T06:02:42;101600.16;;;5.16;100.00
37610;BME280;23457;51.966;8.230;2023-03-04T06:05:11;101605.84;;;4.94;100.00
37610;BME280;23457;51.966;8.230;2023-03-04T06:07:38;101599.31;;;5.33;100.00
37610;BME280;23457;51.966;8.230;2023-03-04T06:10:06;101600.25;;;5.52;100.00
37610;BME280;23457;51.966;8.230;2023-03-04T06:12:33;101597.88;;;5.38;100.00
37610;BME280;23457;51.966;8.230;2023-03-04T06:14:59;101598.22;;;5.46;100.00
37610;BME280;23457;51.966;8.230;2023-03-04T06:17:26;101599.47;;;5.70;100.00
37610;BME280;23457;51.966;8.230;2023-03-04T06:19:53;101597.88;;;5.38;100.00
37610;BME280;23457;51.966;8.230;2023-03-04T06:22:19;101595.53;;;5.61;100.00
37610;BME280;23457;51.966;8.230;2023-03-04T06:24:46;101598.53;;;5.18;100.00
37610;BME280;23457;51.966;8.230;2023-03-04T06:27:13;101603.84;;;5.21;100.00
37610;BME280;23457;51.966;8.230;2023-03-04T06:29:39;101603.81;;;5.37;100.00
37610;BME280;23457;51.966;8.230;2023-03-04T06:32:06;101607.06;;;5.67;100.00
37610;BME280;23457;51.966;8.230;2023-03-04T06:34:33;101608.75;;;5.85;100.00
37610;BME280;23457;51.966;8.230;2023-03-04T06:36:59;101605.38;;;5.68;100.00
37610;BME280;23457;51.966;8.230;2023-03-04T06:39:26;101607.97;;;5.18;100.00
37610;BME280;23457;51.966;8.230;2023-03-04T06:41:53;101608.78;;;5.51;100.00
37610;BME280;23457;51.966;8.230;2023-03-04T06:44:19;101615.69;;;5.68;100.00
37610;BME280;23457;51.966;8.230;2023-03-04T06:46:46;101614.28;;;5.74;100.00
37610;BME280;23457;51.966;8.230;2023-03-04T06:49:12;101621.22;;;5.42;100.00
37610;BME280;23457;51.966;8.230;2023-03-04T06:51:39;101619.44;;;5.40;100.00
37610;BME280;23457;51.966;8.230;2023-03-04T06:54:06;101619.94;;;5.33;100.00
37610;BME280;23457;51.966;8.230;2023-03-04T06:56:32;101631.75;;;5.46;100.00
37610;BME280;23457;51.966;8.230;2023-03-04T06:58:59;101633.94;;;5.38;100.00
37610;BME280;23457;51.966;8.230;2023-03-04T07:01:27;101622.63;;;5.69;100.00
37610;BME280;23457;51.966;8.230;2023-03-04T07:03:55;101622.66;;;5.53;100.00
37610;BME280;23457;51.966;8.230;2023-03-04T07:06:25;101622.63;;;5.69;100.00
37610;BME280;23457;51.966;8.230;2023-03-04T07:08:53;101628.84;;;5.56;100.00
37610;BME280;23457;51.966;8.230;2023-03-04T07:11:20;101625.06;;;5.50;100.00
37610;BME280;23457;51.966;8.230;2023-03-04T07:13:47;101623.28;;;5.49;100.00
37610;BME280;23457;51.966;8.230;2023-03-04T07:16:19;101625.06;;;5.50;100.00
37610;BME280;23457;51.966;8.230;2023-03-04T07:18:47;101617.97;;;5.46;100.00
37610;BME280;23457;51.966;8.230;2023-03-04T07:21:15;101626.09;;;5.69;100.00
37610;BME280;23457;51.966;8.230;2023-03-04T07:23:42;101619.91;;;5.50;100.00
37610;BME280;23457;51.966;8.230;2023-03-04T07:26:09;101615.34;;;5.78;100.00
37610;BME280;23457;51.966;8.230;2023-03-04T07:28:36;101622.88;;;5.57;100.00
37610;BME280;23457;51.966;8.230;2023-03-04T07:33:46;101614.75;;;5.50;100.00
37610;BME280;23457;51.966;8.230;2023-03-04T07:36:12;101623.00;;;5.26;100.00
37610;BME280;23457;51.966;8.230;2023-03-04T07:38:44;101621.59;;;5.49;100.00
37610;BME280;23457;51.966;8.230;2023-03-04T07:41:11;101622.66;;;5.53;100.00
37610;BME280;23457;51.966;8.230;2023-03-04T07:43:38;101619.09;;;5.51;100.00
37610;BME280;23457;51.966;8.230;2023-03-04T07:46:05;101619.88;;;5.66;100.00
37610;BME280;23457;51.966;8.230;2023-03-04T07:48:31;101609.31;;;5.27;100.00
37610;BME280;23457;51.966;8.230;2023-03-04T07:51:25;101614.47;;;5.44;100.00
37610;BME280;23457;51.966;8.230;2023-03-04T07:53:55;101617.66;;;5.56;100.00
37610;BME280;23457;51.966;8.230;2023-03-04T07:56:22;101622.03;;;5.40;100.00
37610;BME280;23457;51.966;8.230;2023-03-04T07:58:50;101616.63;;;5.70;100.00
37610;BME280;23457;51.966;8.230;2023-03-04T08:01:26;101617.38;;;5.67;100.00
37610;BME280;23457;51.966;8.230;2023-03-04T08:03:52;101620.69;;;5.65;100.00
37610;BME280;23457;51.966;8.230;2023-03-04T08:06:20;101617.22;;;5.64;100.00
37610;BME280;23457;51.966;8.230;2023-03-04T08:08:48;101620.69;;;5.65;100.00
37610;BME280;23457;51.966;8.230;2023-03-04T08:11:19;101625.50;;;5.75;100.00
37610;BME280;23457;51.966;8.230;2023-03-04T08:13:47;101623.03;;;5.60;100.00
37610;BME280;23457;51.966;8.230;2023-03-04T08:16:17;101616.34;;;5.64;100.00
37610;BME280;23457;51.966;8.230;2023-03-04T08:18:46;101622.66;;;5.53;100.00
37610;BME280;23457;51.966;8.230;2023-03-04T08:21:15;101620.06;;;5.53;100.00
37610;BME280;23457;51.966;8.230;2023-03-04T08:23:44;101627.22;;;5.58;100.00
37610;BME280;23457;51.966;8.230;2023-03-04T08:26:24;101623.44;;;5.68;100.00
37610;BME280;23457;51.966;8.230;2023-03-04T08:28:52;101628.16;;;5.43;100.00
37610;BME280;23457;51.966;8.230;2023-03-04T08:31:20;101631.47;;;5.58;100.00
37610;BME280;23457;51.966;8.230;2023-03-04T08:33:47;101619.28;;;5.71;100.00
37610;BME280;23457;51.966;8.230;2023-03-04T08:36:14;101615.91;;;5.72;100.00
37610;BME280;23457;51.966;8.230;2023-03-04T08:38:41;101615.34;;;5.78;100.00
37610;BME280;23457;51.966;8.230;2023-03-04T08:41:11;101621.22;;;5.75;100.00
37610;BME280;23457;51.966;8.230;2023-03-04T08:43:39;101607.50;;;5.76;100.00
37610;BME280;23457;51.966;8.230;2023-03-04T08:46:08;101605.00;;;5.78;100.00
37610;BME280;23457;51.966;8.230;2023-03-04T08:48:36;101610.44;;;5.84;100.00
37610;BME280;23457;51.966;8.230;2023-03-04T08:51:12;101613.25;;;5.71;100.00
37610;BME280;23457;51.966;8.230;2023-03-04T08:53:38;101608.84;;;5.68;100.00
37610;BME280;23457;51.966;8.230;2023-03-04T08:56:06;101611.69;;;5.91;100.00
37610;BME280;23457;51.966;8.230;2023-03-04T08:58:33;101607.94;;;5.68;100.00
37610;BME280;23457;51.966;8.230;2023-03-04T09:01:00;101616.63;;;5.70;100.00
37610;BME280;23457;51.966;8.230;2023-03-04T09:03:27;101608.31;;;5.92;100.00
37610;BME280;23457;51.966;8.230;2023-03-04T09:05:54;101605.56;;;5.89;100.00
37610;BME280;23457;51.966;8.230;2023-03-04T09:08:21;101611.47;;;5.70;100.00
37610;BME280;23457;51.966;8.230;2023-03-04T09:10:51;101617.91;;;5.94;100.00
37610;BME280;23457;51.966;8.230;2023-03-04T09:13:18;101607.47;;;5.59;100.00
37610;BME280;23457;51.966;8.230;2023-03-04T09:15:46;101611.47;;;5.70;100.00
37610;BME280;23457;51.966;8.230;2023-03-04T09:18:13;101616.50;;;5.85;100.00
37610;BME280;23457;51.966;8.230;2023-03-04T09:20:40;101602.03;;;5.70;100.00
37610;BME280;23457;51.966;8.230;2023-03-04T09:23:07;101603.69;;;5.86;100.00
37610;BME280;23457;51.966;8.230;2023-03-04T09:25:35;101610.50;;;6.02;100.00
37610;BME280;23457;51.966;8.230;2023-03-04T09:28:02;101601.97;;;6.03;100.00
37610;BME280;23457;51.966;8.230;2023-03-04T09:30:29;101611.53;;;5.71;100.00
37610;BME280;23457;51.966;8.230;2023-03-04T09:32:56;101609.28;;;5.78;100.00
37610;BME280;23457;51.966;8.230;2023-03-04T09:35:25;101608.56;;;5.80;100.00
37610;BME280;23457;51.966;8.230;2023-03-04T09:37:53;101603.28;;;5.61;100.00
37610;BME280;23457;51.966;8.230;2023-03-04T09:40:22;101606.84;;;5.47;100.00
37610;BME280;23457;51.966;8.230;2023-03-04T09:42:55;101605.28;;;6.00;100.00
37610;BME280;23457;51.966;8.230;2023-03-04T09:45:30;101605.66;;;5.74;100.00
37610;BME280;23457;51.966;8.230;2023-03-04T09:48:00;101598.38;;;5.83;100.00
37610;BME280;23457;51.966;8.230;2023-03-04T09:50:29;101605.28;;;5.84;100.00
37610;BME280;23457;51.966;8.230;2023-03-04T09:53:16;101604.16;;;5.95;100.00
37610;BME280;23457;51.966;8.230;2023-03-04T09:55:49;101604.50;;;5.85;100.00
37610;BME280;23457;51.966;8.230;2023-03-04T10:01:18;101604.81;;;6.27;100.00
37610;BME280;23457;51.966;8.230;2023-03-04T10:06:21;101606.31;;;5.70;100.00
37610;BME280;23457;51.966;8.230;2023-03-04T10:09:13;101591.59;;;5.85;100.00
37610;BME280;23457;51.966;8.230;2023-03-04T10:11:44;101600.00;;;5.81;100.00
37610;BME280;23457;51.966;8.230;2023-03-04T10:16:58;101595.41;;;5.75;100.00
37610;BME280;23457;51.966;8.230;2023-03-04T10:22:26;101590.59;;;5.99;100.00
37610;BME280;23457;51.966;8.230;2023-03-04T10:24:56;101589.63;;;5.97;100.00
37610;BME280;23457;51.966;8.230;2023-03-04T10:27:23;101583.81;;;6.01;100.00
37610;BME280;23457;51.966;8.230;2023-03-04T10:29:50;101587.88;;;6.32;100.00
37610;BME280;23457;51.966;8.230;2023-03-04T10:32:18;101588.69;;;6.31;100.00
37610;BME280;23457;51.966;8.230;2023-03-04T10:34:45;101588.09;;;6.01;100.00
37610;BME280;23457;51.966;8.230;2023-03-04T10:37:12;101578.00;;;6.05;100.00
37610;BME280;23457;51.966;8.230;2023-03-04T10:39:44;101574.50;;;6.40;100.00
37610;BME280;23457;51.966;8.230;2023-03-04T10:44:52;101560.94;;;6.27;100.00
37610;BME280;23457;51.966;8.230;2023-03-04T10:47:23;101568.75;;;6.65;100.00
37610;BME280;23457;51.966;8.230;2023-03-04T10:49:53;101574.25;;;6.36;100.00
37610;BME280;23457;51.966;8.230;2023-03-04T10:54:49;101570.38;;;6.63;100.00
37610;BME280;23457;51.966;8.230;2023-03-04T10:57:38;101577.72;;;6.54;100.00
37610;BME280;23457;51.966;8.230;2023-03-04T11:02:49;101578.75;;;6.77;100.00
37610;BME280;23457;51.966;8.230;2023-03-04T11:05:25;101568.81;;;6.67;100.00
37610;BME280;23457;51.966;8.230;2023-03-04T11:07:53;101575.19;;;6.56;100.00
37610;BME280;23457;51.966;8.230;2023-03-04T11:15:59;101554.41;;;6.91;100.00
37610;BME280;23457;51.966;8.230;2023-03-04T11:18:43;101567.19;;;6.69;100.00
37610;BME280;23457;51.966;8.230;2023-03-04T11:21:33;101557.44;;;7.21;100.00
37610;BME280;23457;51.966;8.230;2023-03-04T11:24:13;101565.44;;;7.27;100.00
37610;BME280;23457;51.966;8.230;2023-03-04T11:27:10;101557.47;;;7.63;100.00
37610;BME280;23457;51.966;8.230;2023-03-04T11:32:48;101542.09;;;7.88;100.00
37610;BME280;23457;51.966;8.230;2023-03-04T11:35:42;101541.59;;;7.97;100.00
37610;BME280;23457;51.966;8.230;2023-03-04T11:38:19;101549.75;;;7.85;100.00
37610;BME280;23457;51.966;8.230;2023-03-04T11:40:53;101544.13;;;7.95;100.00
37610;BME280;23457;51.966;8.230;2023-03-04T11:43:33;101543.78;;;7.65;100.00
37610;BME280;23457;51.966;8.230;2023-03-04T11:51:51;101541.00;;;7.40;100.00
37610;BME280;23457;51.966;8.230;2023-03-04T11:54:34;101536.38;;;7.53;100.00
37610;BME280;23457;51.966;8.230;2023-03-04T12:00:15;101532.00;;;7.94;100.00
37610;BME280;23457;51.966;8.230;2023-03-04T12:02:59;101533.38;;;7.86;100.00
37610;BME280;23457;51.966;8.230;2023-03-04T12:16:38;101518.41;;;7.57;92.23
37610;BME280;23457;51.966;8.230;2023-03-04T12:22:28;101511.72;;;7.62;89.91
37610;BME280;23457;51.966;8.230;2023-03-04T12:30:48;101508.44;;;7.24;98.69
37610;BME280;23457;51.966;8.230;2023-03-04T12:41:14;101492.16;;;7.27;97.77
37610;BME280;23457;51.966;8.230;2023-03-04T12:51:50;101476.84;;;7.52;100.00
37610;BME280;23457;51.966;8.230;2023-03-04T12:54:31;101475.97;;;7.74;97.91
37610;BME280;23457;51.966;8.230;2023-03-04T12:57:18;101475.28;;;8.00;95.64
37610;BME280;23457;51.966;8.230;2023-03-04T12:59:56;101469.28;;;7.79;95.58
37610;BME280;23457;51.966;8.230;2023-03-04T13:02:32;101470.84;;;7.53;93.85
37610;BME280;23457;51.966;8.230;2023-03-04T13:10:37;101466.09;;;7.64;90.49
37610;BME280;23457;51.966;8.230;2023-03-04T13:13:35;101461.66;;;7.61;90.47
37610;BME280;23457;51.966;8.230;2023-03-04T13:18:37;101456.91;;;8.16;88.87
37610;BME280;23457;51.966;8.230;2023-03-04T13:23:37;101453.00;;;8.04;89.77
37610;BME280;23457;51.966;8.230;2023-03-04T13:26:28;101446.00;;;8.25;88.01
37610;BME280;23457;51.966;8.230;2023-03-04T13:32:03;101440.19;;;8.31;88.63
37610;BME280;23457;51.966;8.230;2023-03-04T13:40:32;101443.06;;;8.62;83.60
37610;BME280;23457;51.966;8.230;2023-03-04T13:43:35;101435.03;;;8.54;81.75
37610;BME280;23457;51.966;8.230;2023-03-04T13:49:06;101438.31;;;8.26;79.02
37610;BME280;23457;51.966;8.230;2023-03-04T13:51:41;101437.56;;;8.07;77.00
37610;BME280;23457;51.966;8.230;2023-03-04T14:02:02;101437.69;;;8.10;79.97
37610;BME280;23457;51.966;8.230;2023-03-04T14:04:40;101429.75;;;8.05;81.87
37610;BME280;23457;51.966;8.230;2023-03-04T14:12:41;101440.44;;;7.47;85.41
37610;BME280;23457;51.966;8.230;2023-03-04T14:17:47;101447.75;;;7.37;85.19
37610;BME280;23457;51.966;8.230;2023-03-04T14:20:33;101443.56;;;7.61;84.94
37610;BME280;23457;51.966;8.230;2023-03-04T14:23:02;101438.69;;;7.46;82.86
37610;BME280;23457;51.966;8.230;2023-03-04T14:25:33;101437.63;;;7.64;80.62
37610;BME280;23457;51.966;8.230;2023-03-04T14:28:15;101434.09;;;7.62;80.63
37610;BME280;23457;51.966;8.230;2023-03-04T14:30:50;101432.63;;;7.46;81.80
37610;BME280;23457;51.966;8.230;2023-03-04T14:33:23;101439.19;;;7.38;82.29
37610;BME280;23457;51.966;8.230;2023-03-04T14:35:53;101432.25;;;7.16;84.78
37610;BME280;23457;51.966;8.230;2023-03-04T14:38:29;101427.34;;;7.22;84.74
37610;BME280;23457;51.966;8.230;2023-03-04T14:43:48;101421.63;;;7.51;84.29
37610;BME280;23457;51.966;8.230;2023-03-04T14:46:17;101420.03;;;7.12;85.37
37610;BME280;23457;51.966;8.230;2023-03-04T14:48:48;101417.75;;;7.40;84.59
37610;BME280;23457;51.966;8.230;2023-03-04T14:53:54;101413.59;;;7.23;86.52
37610;BME280;23457;51.966;8.230;2023-03-04T14:56:29;101412.56;;;7.40;86.66
37610;BME280;23457;51.966;8.230;2023-03-04T14:58:57;101411.00;;;7.44;86.90
37610;BME280;23457;51.966;8.230;2023-03-04T15:01:35;101412.97;;;7.72;87.54
37610;BME280;23457;51.966;8.230;2023-03-04T15:04:03;101408.69;;;7.51;87.82
37610;BME280;23457;51.966;8.230;2023-03-04T15:06:33;101415.25;;;7.21;88.61
37610;BME280;23457;51.966;8.230;2023-03-04T15:09:17;101411.97;;;7.47;88.18
37610;BME280;23457;51.966;8.230;2023-03-04T15:12:00;101405.09;;;7.05;89.05